AAL542 KDFW-KSAN
Flight info
| Callsign | AAL542 |
|---|---|
| Flight time | 3h 2m |
| Altitude | 36000 |
| Route | WSTEX2 CIKAN EWM J4 SSO GBN J2 HOGGZ LUCKI1 |
| Aircraft | A21N/M-SDE2E3FGHIRWXY/LB1 |
Departure
| Time | 2026-05-05 16:40 |
|---|---|
| Airport | Dallas Fort Worth International Airport (KDFW) |
Arrival
| Time | 2026-05-05 19:42 |
|---|---|
| Airport | San Diego International Airport (KSAN) |
| Time | Latitude | Longitude | Altitude | Speed | Heading |
|---|---|---|---|---|---|
| 2026-05-05 16:18 | 32.89476 | -97.03785 | 592 ft | 0 kts | 352° |
| 2026-05-05 16:27 | 32.89475 | -97.03785 | 592 ft | 2 kts | 352° |
| 2026-05-05 16:27 | 32.89451 | -97.03781 | 592 ft | 3 kts | 353° |
| 2026-05-05 16:28 | 32.89431 | -97.03781 | 592 ft | 4 kts | 28° |
| 2026-05-05 16:28 | 32.89422 | -97.03799 | 592 ft | 3 kts | 91° |
| 2026-05-05 16:28 | 32.89422 | -97.03776 | 592 ft | 4 kts | 91° |
| 2026-05-05 16:28 | 32.89421 | -97.03744 | 592 ft | 3 kts | 91° |
| 2026-05-05 16:29 | 32.89421 | -97.03739 | 592 ft | 0 kts | 91° |
| 2026-05-05 16:32 | 32.89421 | -97.03733 | 592 ft | 0 kts | 91° |
| 2026-05-05 16:32 | 32.89421 | -97.03720 | 592 ft | 3 kts | 91° |
| 2026-05-05 16:32 | 32.89421 | -97.03685 | 592 ft | 5 kts | 91° |
| 2026-05-05 16:33 | 32.89420 | -97.03657 | 592 ft | 0 kts | 91° |
| 2026-05-05 16:33 | 32.89420 | -97.03654 | 592 ft | 2 kts | 92° |
| 2026-05-05 16:33 | 32.89419 | -97.03581 | 592 ft | 16 kts | 91° |
| 2026-05-05 16:34 | 32.89417 | -97.03438 | 592 ft | 18 kts | 91° |
| 2026-05-05 16:34 | 32.89400 | -97.03314 | 590 ft | 13 kts | 113° |
| 2026-05-05 16:34 | 32.89403 | -97.03209 | 583 ft | 13 kts | 52° |
| 2026-05-05 16:34 | 32.89495 | -97.03194 | 584 ft | 15 kts | 353° |
| 2026-05-05 16:35 | 32.89605 | -97.03194 | 586 ft | 17 kts | 0° |
| 2026-05-05 16:35 | 32.89723 | -97.03194 | 585 ft | 17 kts | 359° |
| 2026-05-05 16:35 | 32.89847 | -97.03194 | 583 ft | 18 kts | 0° |
| 2026-05-05 16:35 | 32.89978 | -97.03193 | 583 ft | 19 kts | 359° |
| 2026-05-05 16:36 | 32.90113 | -97.03192 | 581 ft | 20 kts | 1° |
| 2026-05-05 16:36 | 32.90256 | -97.03190 | 578 ft | 21 kts | 359° |
| 2026-05-05 16:36 | 32.90401 | -97.03190 | 582 ft | 22 kts | 359° |
| 2026-05-05 16:36 | 32.90555 | -97.03189 | 581 ft | 23 kts | 0° |
| 2026-05-05 16:37 | 32.90716 | -97.03188 | 582 ft | 24 kts | 359° |
| 2026-05-05 16:37 | 32.90887 | -97.03187 | 585 ft | 25 kts | 0° |
| 2026-05-05 16:37 | 32.91066 | -97.03187 | 583 ft | 26 kts | 0° |
| 2026-05-05 16:37 | 32.91252 | -97.03185 | 586 ft | 27 kts | 0° |
| 2026-05-05 16:38 | 32.91432 | -97.03185 | 582 ft | 20 kts | 0° |
| 2026-05-05 16:38 | 32.91546 | -97.03170 | 580 ft | 11 kts | 45° |
| 2026-05-05 16:38 | 32.91558 | -97.03073 | 581 ft | 13 kts | 90° |
| 2026-05-05 16:38 | 32.91519 | -97.02988 | 583 ft | 15 kts | 175° |
| 2026-05-05 16:39 | 32.91365 | -97.02989 | 582 ft | 45 kts | 181° |
| 2026-05-05 16:39 | 32.90820 | -97.02995 | 579 ft | 109 kts | 179° |
| 2026-05-05 16:39 | 32.89885 | -97.02999 | 583 ft | 157 kts | 181° |
| 2026-05-05 16:39 | 32.88712 | -97.02987 | 859 ft | 175 kts | 182° |
| 2026-05-05 16:40 | 32.87499 | -97.03031 | 1565 ft | 169 kts | 189° |
| 2026-05-05 16:40 | 32.86318 | -97.03176 | 2144 ft | 178 kts | 188° |
| 2026-05-05 16:40 | 32.85011 | -97.03238 | 2619 ft | 196 kts | 189° |
| 2026-05-05 16:40 | 32.83650 | -97.03443 | 3262 ft | 201 kts | 199° |
| 2026-05-05 16:41 | 32.82236 | -97.03742 | 3861 ft | 212 kts | 197° |
| 2026-05-05 16:41 | 32.80728 | -97.03977 | 4364 ft | 228 kts | 195° |
| 2026-05-05 16:41 | 32.79068 | -97.04232 | 4692 ft | 252 kts | 193° |
| 2026-05-05 16:41 | 32.77293 | -97.04491 | 5261 ft | 261 kts | 192° |
| 2026-05-05 16:42 | 32.75480 | -97.04752 | 5985 ft | 264 kts | 192° |
| 2026-05-05 16:42 | 32.73648 | -97.05022 | 6688 ft | 266 kts | 194° |
| 2026-05-05 16:42 | 32.71904 | -97.05643 | 7382 ft | 260 kts | 214° |
| 2026-05-05 16:42 | 32.70575 | -97.07032 | 7997 ft | 258 kts | 239° |
| 2026-05-05 16:43 | 32.69871 | -97.08995 | 8587 ft | 261 kts | 257° |
| 2026-05-05 16:43 | 32.69474 | -97.11109 | 9306 ft | 265 kts | 258° |
| 2026-05-05 16:43 | 32.69100 | -97.13265 | 10052 ft | 267 kts | 261° |
| 2026-05-05 16:43 | 32.68943 | -97.15460 | 10441 ft | 285 kts | 268° |
| 2026-05-05 16:44 | 32.68921 | -97.17966 | 10712 ft | 306 kts | 269° |
| 2026-05-05 16:44 | 32.68902 | -97.20535 | 10945 ft | 325 kts | 269° |
| 2026-05-05 16:44 | 32.68867 | -97.23334 | 11167 ft | 344 kts | 268° |
| 2026-05-05 16:44 | 32.68818 | -97.26187 | 11535 ft | 355 kts | 268° |
| 2026-05-05 16:45 | 32.68766 | -97.29138 | 12129 ft | 359 kts | 268° |
| 2026-05-05 16:45 | 32.68710 | -97.32103 | 12798 ft | 360 kts | 268° |
| 2026-05-05 16:45 | 32.68648 | -97.35079 | 13405 ft | 362 kts | 268° |
| 2026-05-05 16:45 | 32.68579 | -97.38072 | 13987 ft | 363 kts | 268° |
| 2026-05-05 16:46 | 32.68510 | -97.41072 | 14545 ft | 365 kts | 268° |
| 2026-05-05 16:46 | 32.68447 | -97.44088 | 15091 ft | 366 kts | 268° |
| 2026-05-05 16:46 | 32.68385 | -97.47115 | 15622 ft | 368 kts | 267° |
| 2026-05-05 16:46 | 32.68318 | -97.50159 | 16161 ft | 370 kts | 267° |
| 2026-05-05 16:47 | 32.68251 | -97.53215 | 16686 ft | 371 kts | 267° |
| 2026-05-05 16:47 | 32.68182 | -97.56285 | 17231 ft | 373 kts | 267° |
| 2026-05-05 16:47 | 32.68113 | -97.59369 | 17749 ft | 375 kts | 266° |
| 2026-05-05 16:47 | 32.68039 | -97.62479 | 18220 ft | 378 kts | 266° |
| 2026-05-05 16:48 | 32.67972 | -97.65609 | 18679 ft | 380 kts | 267° |
| 2026-05-05 16:48 | 32.67899 | -97.68744 | 19179 ft | 380 kts | 266° |
| 2026-05-05 16:48 | 32.67813 | -97.71886 | 19606 ft | 380 kts | 267° |
| 2026-05-05 16:48 | 32.67644 | -97.75017 | 20139 ft | 380 kts | 264° |
| 2026-05-05 16:49 | 32.67401 | -97.78137 | 20686 ft | 380 kts | 264° |
| 2026-05-05 16:49 | 32.67163 | -97.81259 | 21246 ft | 380 kts | 264° |
| 2026-05-05 16:49 | 32.66924 | -97.84385 | 21829 ft | 380 kts | 265° |
| 2026-05-05 16:49 | 32.66684 | -97.87514 | 22407 ft | 381 kts | 265° |
| 2026-05-05 16:50 | 32.66441 | -97.90642 | 22964 ft | 381 kts | 265° |
| 2026-05-05 16:50 | 32.66196 | -97.93774 | 23475 ft | 381 kts | 265° |
| 2026-05-05 16:50 | 32.65952 | -97.96908 | 23868 ft | 382 kts | 265° |
| 2026-05-05 16:50 | 32.65714 | -98.00053 | 24218 ft | 384 kts | 265° |
| 2026-05-05 16:51 | 32.65469 | -98.03218 | 24551 ft | 386 kts | 265° |
| 2026-05-05 16:51 | 32.65221 | -98.06362 | 24882 ft | 388 kts | 265° |
| 2026-05-05 16:51 | 32.64965 | -98.09602 | 25213 ft | 390 kts | 265° |
| 2026-05-05 16:51 | 32.64709 | -98.12807 | 25620 ft | 390 kts | 265° |
| 2026-05-05 16:52 | 32.64454 | -98.16005 | 26059 ft | 389 kts | 265° |
| 2026-05-05 16:52 | 32.64197 | -98.19191 | 26493 ft | 388 kts | 265° |
| 2026-05-05 16:52 | 32.63942 | -98.22326 | 26919 ft | 386 kts | 265° |
| 2026-05-05 16:52 | 32.63685 | -98.25495 | 27320 ft | 385 kts | 265° |
| 2026-05-05 16:53 | 32.63430 | -98.28657 | 27713 ft | 385 kts | 265° |
| 2026-05-05 16:53 | 32.63174 | -98.31814 | 28110 ft | 384 kts | 265° |
| 2026-05-05 16:53 | 32.62919 | -98.34965 | 28508 ft | 384 kts | 265° |
| 2026-05-05 16:53 | 32.62662 | -98.38113 | 28907 ft | 383 kts | 264° |
| 2026-05-05 16:54 | 32.62405 | -98.41248 | 29325 ft | 382 kts | 264° |
| 2026-05-05 16:54 | 32.62148 | -98.44381 | 29736 ft | 381 kts | 264° |
| 2026-05-05 16:54 | 32.61888 | -98.47498 | 30077 ft | 380 kts | 264° |
| 2026-05-05 16:54 | 32.61630 | -98.50609 | 30441 ft | 378 kts | 264° |
| 2026-05-05 16:55 | 32.61372 | -98.53709 | 30796 ft | 377 kts | 264° |
| 2026-05-05 16:55 | 32.61117 | -98.56792 | 31164 ft | 375 kts | 264° |
| 2026-05-05 16:55 | 32.60863 | -98.59862 | 31541 ft | 373 kts | 264° |
| 2026-05-05 16:55 | 32.60607 | -98.62917 | 31916 ft | 371 kts | 264° |
| 2026-05-05 16:56 | 32.60353 | -98.65951 | 32263 ft | 369 kts | 264° |
| 2026-05-05 16:56 | 32.60100 | -98.68971 | 32615 ft | 367 kts | 264° |
| 2026-05-05 16:56 | 32.59845 | -98.71978 | 32939 ft | 366 kts | 264° |
| 2026-05-05 16:56 | 32.59593 | -98.74971 | 33259 ft | 364 kts | 264° |
| 2026-05-05 16:57 | 32.59335 | -98.77953 | 33576 ft | 362 kts | 264° |
| 2026-05-05 16:57 | 32.59079 | -98.80919 | 33870 ft | 361 kts | 264° |
| 2026-05-05 16:57 | 32.58830 | -98.83871 | 34117 ft | 359 kts | 264° |
| 2026-05-05 16:57 | 32.58581 | -98.86812 | 34343 ft | 358 kts | 264° |
| 2026-05-05 16:58 | 32.58331 | -98.89749 | 34555 ft | 357 kts | 264° |
| 2026-05-05 16:58 | 32.58077 | -98.92673 | 34763 ft | 356 kts | 264° |
| 2026-05-05 16:58 | 32.57823 | -98.95590 | 34949 ft | 355 kts | 264° |
| 2026-05-05 16:58 | 32.57568 | -98.98505 | 35129 ft | 355 kts | 264° |
| 2026-05-05 16:59 | 32.57316 | -99.01410 | 35304 ft | 354 kts | 264° |
| 2026-05-05 16:59 | 32.57065 | -99.04312 | 35479 ft | 354 kts | 264° |
| 2026-05-05 16:59 | 32.56814 | -99.07206 | 35601 ft | 353 kts | 264° |
| 2026-05-05 16:59 | 32.56563 | -99.10100 | 35722 ft | 353 kts | 264° |
| 2026-05-05 17:00 | 32.56049 | -99.15866 | 35722 ft | 351 kts | 263° |
| 2026-05-05 17:00 | 32.55548 | -99.21583 | 35712 ft | 351 kts | 264° |
| 2026-05-05 17:01 | 32.55038 | -99.27335 | 35706 ft | 351 kts | 264° |
| 2026-05-05 17:01 | 32.54534 | -99.33095 | 35705 ft | 351 kts | 264° |
| 2026-05-05 17:02 | 32.54171 | -99.38874 | 35735 ft | 351 kts | 265° |
| 2026-05-05 17:02 | 32.53815 | -99.44655 | 35757 ft | 352 kts | 265° |
| 2026-05-05 17:03 | 32.53458 | -99.50447 | 35774 ft | 353 kts | 265° |
| 2026-05-05 17:03 | 32.53104 | -99.56247 | 35789 ft | 353 kts | 265° |
| 2026-05-05 17:04 | 32.52752 | -99.62056 | 35803 ft | 353 kts | 264° |
| 2026-05-05 17:04 | 32.52395 | -99.67856 | 35810 ft | 353 kts | 264° |
| 2026-05-05 17:05 | 32.52035 | -99.73656 | 35809 ft | 353 kts | 264° |
| 2026-05-05 17:05 | 32.51674 | -99.79453 | 35795 ft | 353 kts | 264° |
| 2026-05-05 17:06 | 32.51318 | -99.85248 | 35812 ft | 352 kts | 264° |
| 2026-05-05 17:06 | 32.50950 | -99.91036 | 35797 ft | 353 kts | 264° |
| 2026-05-05 17:07 | 32.50588 | -99.96830 | 35789 ft | 353 kts | 264° |
| 2026-05-05 17:07 | 32.50204 | -100.02616 | 35773 ft | 353 kts | 264° |
| 2026-05-05 17:08 | 32.49823 | -100.08403 | 35748 ft | 352 kts | 264° |
| 2026-05-05 17:08 | 32.49444 | -100.14149 | 35735 ft | 352 kts | 264° |
| 2026-05-05 17:09 | 32.49066 | -100.19933 | 35720 ft | 353 kts | 264° |
| 2026-05-05 17:09 | 32.48682 | -100.25725 | 35700 ft | 352 kts | 263° |
| 2026-05-05 17:10 | 32.48295 | -100.31510 | 35853 ft | 353 kts | 263° |
| 2026-05-05 17:10 | 32.47913 | -100.37309 | 35885 ft | 352 kts | 263° |
| 2026-05-05 17:11 | 32.47541 | -100.43096 | 35889 ft | 352 kts | 263° |
| 2026-05-05 17:11 | 32.47154 | -100.48874 | 35885 ft | 352 kts | 263° |
| 2026-05-05 17:12 | 32.46766 | -100.54655 | 35888 ft | 352 kts | 263° |
| 2026-05-05 17:12 | 32.46374 | -100.60440 | 35872 ft | 353 kts | 263° |
| 2026-05-05 17:13 | 32.45981 | -100.66237 | 35840 ft | 353 kts | 263° |
| 2026-05-05 17:13 | 32.45587 | -100.72031 | 35802 ft | 353 kts | 263° |
| 2026-05-05 17:14 | 32.45196 | -100.77783 | 35771 ft | 353 kts | 263° |
| 2026-05-05 17:14 | 32.44796 | -100.83574 | 35755 ft | 353 kts | 263° |
| 2026-05-05 17:15 | 32.44393 | -100.89361 | 35763 ft | 353 kts | 263° |
| 2026-05-05 17:15 | 32.43982 | -100.95153 | 35770 ft | 353 kts | 263° |
| 2026-05-05 17:16 | 32.43575 | -101.00937 | 35762 ft | 353 kts | 263° |
| 2026-05-05 17:16 | 32.43161 | -101.06725 | 35755 ft | 353 kts | 263° |
| 2026-05-05 17:17 | 32.42747 | -101.12511 | 35742 ft | 352 kts | 263° |
| 2026-05-05 17:17 | 32.42331 | -101.18283 | 35717 ft | 352 kts | 263° |
| 2026-05-05 17:18 | 32.41910 | -101.24066 | 35706 ft | 353 kts | 263° |
| 2026-05-05 17:18 | 32.41492 | -101.29847 | 35707 ft | 352 kts | 263° |
| 2026-05-05 17:19 | 32.41069 | -101.35615 | 35714 ft | 351 kts | 262° |
| 2026-05-05 17:19 | 32.40645 | -101.41360 | 35712 ft | 350 kts | 262° |
| 2026-05-05 17:20 | 32.40289 | -101.46133 | 35714 ft | 351 kts | 262° |
| 2026-05-05 17:20 | 32.39860 | -101.51887 | 35714 ft | 351 kts | 262° |
| 2026-05-05 17:21 | 32.39355 | -101.58573 | 35714 ft | 350 kts | 262° |
| 2026-05-05 17:22 | 32.38703 | -101.67179 | 35717 ft | 350 kts | 262° |
| 2026-05-05 17:22 | 32.38332 | -101.71986 | 35720 ft | 349 kts | 261° |
| 2026-05-05 17:23 | 32.37891 | -101.77697 | 35722 ft | 349 kts | 261° |
| 2026-05-05 17:23 | 32.37453 | -101.83412 | 35723 ft | 349 kts | 261° |
| 2026-05-05 17:24 | 32.37012 | -101.89131 | 35719 ft | 349 kts | 261° |
| 2026-05-05 17:24 | 32.36567 | -101.94838 | 35727 ft | 349 kts | 261° |
| 2026-05-05 17:25 | 32.36113 | -102.00545 | 35726 ft | 348 kts | 261° |
| 2026-05-05 17:25 | 32.35669 | -102.06254 | 35755 ft | 347 kts | 261° |
| 2026-05-05 17:26 | 32.35247 | -102.11862 | 35734 ft | 344 kts | 261° |
| 2026-05-05 17:26 | 32.34800 | -102.17535 | 35729 ft | 344 kts | 261° |
| 2026-05-05 17:27 | 32.34348 | -102.23132 | 35740 ft | 344 kts | 261° |
| 2026-05-05 17:27 | 32.33896 | -102.28770 | 35743 ft | 344 kts | 261° |
| 2026-05-05 17:28 | 32.33437 | -102.34396 | 35755 ft | 344 kts | 261° |
| 2026-05-05 17:28 | 32.32956 | -102.40019 | 35755 ft | 344 kts | 261° |
| 2026-05-05 17:29 | 32.32510 | -102.45621 | 35769 ft | 340 kts | 261° |
| 2026-05-05 17:29 | 32.32062 | -102.51177 | 35762 ft | 340 kts | 261° |
| 2026-05-05 17:30 | 32.31602 | -102.56735 | 35764 ft | 340 kts | 261° |
| 2026-05-05 17:30 | 32.31139 | -102.62287 | 35765 ft | 339 kts | 261° |
| 2026-05-05 17:31 | 32.30673 | -102.67867 | 35770 ft | 339 kts | 261° |
| 2026-05-05 17:31 | 32.30187 | -102.73421 | 35769 ft | 340 kts | 261° |
| 2026-05-05 17:32 | 32.29708 | -102.78977 | 35783 ft | 339 kts | 260° |
| 2026-05-05 17:32 | 32.29237 | -102.84518 | 35778 ft | 339 kts | 261° |
| 2026-05-05 17:33 | 32.28772 | -102.90061 | 35773 ft | 339 kts | 260° |
| 2026-05-05 17:33 | 32.28297 | -102.95603 | 35780 ft | 339 kts | 260° |
| 2026-05-05 17:34 | 32.27817 | -103.01140 | 35781 ft | 339 kts | 260° |
| 2026-05-05 17:34 | 32.27334 | -103.06635 | 35774 ft | 339 kts | 260° |
| 2026-05-05 17:35 | 32.26850 | -103.12212 | 35773 ft | 339 kts | 260° |
| 2026-05-05 17:35 | 32.26349 | -103.17754 | 35774 ft | 340 kts | 259° |
| 2026-05-05 17:36 | 32.25845 | -103.23259 | 35776 ft | 340 kts | 259° |
| 2026-05-05 17:36 | 32.25352 | -103.28808 | 35775 ft | 340 kts | 259° |
| 2026-05-05 17:37 | 32.24852 | -103.34356 | 35776 ft | 340 kts | 259° |
| 2026-05-05 17:37 | 32.24349 | -103.39903 | 35774 ft | 339 kts | 259° |
| 2026-05-05 17:38 | 32.23849 | -103.45445 | 35778 ft | 339 kts | 259° |
| 2026-05-05 17:38 | 32.23345 | -103.50993 | 35777 ft | 340 kts | 259° |
| 2026-05-05 17:39 | 32.22839 | -103.56536 | 35781 ft | 340 kts | 259° |
| 2026-05-05 17:39 | 32.22332 | -103.62083 | 35777 ft | 340 kts | 259° |
| 2026-05-05 17:40 | 32.21821 | -103.67625 | 35774 ft | 339 kts | 259° |
| 2026-05-05 17:40 | 32.21309 | -103.73163 | 35772 ft | 339 kts | 259° |
| 2026-05-05 17:41 | 32.20796 | -103.78702 | 35778 ft | 339 kts | 259° |
| 2026-05-05 17:41 | 32.20280 | -103.84241 | 35767 ft | 339 kts | 259° |
| 2026-05-05 17:42 | 32.19758 | -103.89768 | 35782 ft | 338 kts | 259° |
| 2026-05-05 17:42 | 32.19241 | -103.95249 | 35774 ft | 338 kts | 259° |
| 2026-05-05 17:43 | 32.18719 | -104.00763 | 35765 ft | 338 kts | 259° |
| 2026-05-05 17:43 | 32.18193 | -104.06273 | 35837 ft | 338 kts | 258° |
| 2026-05-05 17:44 | 32.17669 | -104.11780 | 35874 ft | 338 kts | 259° |
| 2026-05-05 17:44 | 32.17153 | -104.17291 | 35876 ft | 338 kts | 259° |
| 2026-05-05 17:45 | 32.16629 | -104.22801 | 35835 ft | 339 kts | 258° |
| 2026-05-05 17:45 | 32.16094 | -104.28376 | 35874 ft | 344 kts | 258° |
| 2026-05-05 17:46 | 32.15553 | -104.33984 | 35873 ft | 344 kts | 258° |
| 2026-05-05 17:46 | 32.15005 | -104.39585 | 35862 ft | 343 kts | 258° |
| 2026-05-05 17:47 | 32.14456 | -104.45183 | 35845 ft | 344 kts | 258° |
| 2026-05-05 17:47 | 32.13883 | -104.50777 | 35836 ft | 343 kts | 258° |
| 2026-05-05 17:48 | 32.13323 | -104.56364 | 35810 ft | 343 kts | 258° |
| 2026-05-05 17:48 | 32.12770 | -104.61999 | 35808 ft | 347 kts | 258° |
| 2026-05-05 17:49 | 32.12211 | -104.67625 | 35802 ft | 344 kts | 258° |
| 2026-05-05 17:49 | 32.11631 | -104.73215 | 35804 ft | 345 kts | 258° |
| 2026-05-05 17:50 | 32.11056 | -104.78837 | 35800 ft | 345 kts | 258° |
| 2026-05-05 17:50 | 32.10498 | -104.84403 | 35800 ft | 343 kts | 258° |
| 2026-05-05 17:51 | 32.09943 | -104.90000 | 35799 ft | 344 kts | 258° |
| 2026-05-05 17:51 | 32.09377 | -104.95585 | 35819 ft | 341 kts | 258° |
| 2026-05-05 17:52 | 32.08812 | -105.01124 | 35819 ft | 340 kts | 258° |
| 2026-05-05 17:52 | 32.08238 | -105.06659 | 35813 ft | 340 kts | 258° |
| 2026-05-05 17:53 | 32.07657 | -105.12197 | 35809 ft | 341 kts | 258° |
| 2026-05-05 17:53 | 32.07088 | -105.17745 | 35810 ft | 340 kts | 258° |
| 2026-05-05 17:54 | 32.06492 | -105.23275 | 35814 ft | 340 kts | 257° |
| 2026-05-05 17:54 | 32.05920 | -105.28808 | 35852 ft | 340 kts | 258° |
| 2026-05-05 17:55 | 32.05335 | -105.34326 | 35826 ft | 338 kts | 257° |
| 2026-05-05 17:55 | 32.04756 | -105.39829 | 35809 ft | 338 kts | 257° |
| 2026-05-05 17:56 | 32.04169 | -105.45325 | 35808 ft | 338 kts | 257° |
| 2026-05-05 17:56 | 32.03579 | -105.50804 | 35811 ft | 337 kts | 257° |
| 2026-05-05 17:57 | 32.02973 | -105.56270 | 35812 ft | 338 kts | 257° |
| 2026-05-05 17:57 | 32.02378 | -105.61763 | 35818 ft | 338 kts | 257° |
| 2026-05-05 17:58 | 32.01784 | -105.67254 | 35830 ft | 338 kts | 256° |
| 2026-05-05 17:58 | 32.01188 | -105.72721 | 35821 ft | 339 kts | 256° |
| 2026-05-05 17:59 | 32.00589 | -105.78225 | 35822 ft | 339 kts | 256° |
| 2026-05-05 17:59 | 31.99987 | -105.83730 | 35832 ft | 339 kts | 256° |
| 2026-05-05 18:00 | 31.99386 | -105.89229 | 35827 ft | 338 kts | 256° |
| 2026-05-05 18:00 | 31.98780 | -105.94723 | 35830 ft | 339 kts | 256° |
| 2026-05-05 18:01 | 31.98170 | -106.00218 | 35848 ft | 338 kts | 256° |
| 2026-05-05 18:01 | 31.97555 | -106.05719 | 35869 ft | 339 kts | 256° |
| 2026-05-05 18:02 | 31.96939 | -106.11220 | 35891 ft | 339 kts | 256° |
| 2026-05-05 18:02 | 31.96324 | -106.16726 | 35922 ft | 340 kts | 256° |
| 2026-05-05 18:03 | 31.95700 | -106.22236 | 35951 ft | 340 kts | 256° |
| 2026-05-05 18:03 | 31.95247 | -106.27791 | 35976 ft | 346 kts | 263° |
| 2026-05-05 18:04 | 31.95813 | -106.33506 | 35989 ft | 353 kts | 268° |
| 2026-05-05 18:04 | 31.96527 | -106.39248 | 35993 ft | 355 kts | 268° |
| 2026-05-05 18:05 | 31.97209 | -106.45002 | 35977 ft | 354 kts | 268° |
| 2026-05-05 18:05 | 31.97885 | -106.50723 | 35956 ft | 350 kts | 268° |
| 2026-05-05 18:06 | 31.98542 | -106.56429 | 35973 ft | 352 kts | 268° |
| 2026-05-05 18:06 | 31.99202 | -106.62149 | 35996 ft | 353 kts | 268° |
| 2026-05-05 18:07 | 31.99858 | -106.67874 | 36007 ft | 353 kts | 268° |
| 2026-05-05 18:07 | 32.00524 | -106.73604 | 36004 ft | 353 kts | 268° |
| 2026-05-05 18:08 | 32.01179 | -106.79336 | 35981 ft | 353 kts | 268° |
| 2026-05-05 18:08 | 32.01833 | -106.85066 | 35996 ft | 353 kts | 268° |
| 2026-05-05 18:09 | 32.02372 | -106.89826 | 35915 ft | 352 kts | 268° |
| 2026-05-05 18:09 | 32.03014 | -106.95543 | 35906 ft | 352 kts | 268° |
| 2026-05-05 18:10 | 32.03663 | -107.01257 | 35902 ft | 352 kts | 268° |
| 2026-05-05 18:10 | 32.04303 | -107.06973 | 35905 ft | 352 kts | 268° |
| 2026-05-05 18:11 | 32.04935 | -107.12691 | 35879 ft | 352 kts | 268° |
| 2026-05-05 18:11 | 32.05580 | -107.18402 | 35855 ft | 352 kts | 268° |
| 2026-05-05 18:12 | 32.06224 | -107.24123 | 35824 ft | 352 kts | 268° |
| 2026-05-05 18:12 | 32.06860 | -107.29806 | 35809 ft | 352 kts | 268° |
| 2026-05-05 18:13 | 32.07498 | -107.35530 | 35811 ft | 352 kts | 268° |
| 2026-05-05 18:13 | 32.08128 | -107.41257 | 35874 ft | 352 kts | 267° |
| 2026-05-05 18:14 | 32.08749 | -107.46983 | 35901 ft | 352 kts | 267° |
| 2026-05-05 18:14 | 32.09370 | -107.52712 | 35934 ft | 352 kts | 267° |
| 2026-05-05 18:15 | 32.09992 | -107.58444 | 35964 ft | 352 kts | 267° |
| 2026-05-05 18:15 | 32.10605 | -107.64164 | 35990 ft | 352 kts | 267° |
| 2026-05-05 18:16 | 32.11214 | -107.69891 | 36009 ft | 352 kts | 267° |
| 2026-05-05 18:16 | 32.11824 | -107.75624 | 36019 ft | 353 kts | 267° |
| 2026-05-05 18:17 | 32.12436 | -107.81382 | 35849 ft | 354 kts | 267° |
| 2026-05-05 18:17 | 32.13047 | -107.87149 | 35841 ft | 354 kts | 267° |
| 2026-05-05 18:18 | 32.13652 | -107.92919 | 35845 ft | 354 kts | 267° |
| 2026-05-05 18:18 | 32.14256 | -107.98691 | 35845 ft | 354 kts | 267° |
| 2026-05-05 18:19 | 32.14857 | -108.04462 | 35844 ft | 354 kts | 267° |
| 2026-05-05 18:19 | 32.15457 | -108.10237 | 35845 ft | 354 kts | 267° |
| 2026-05-05 18:20 | 32.16051 | -108.16013 | 35853 ft | 355 kts | 267° |
| 2026-05-05 18:20 | 32.16645 | -108.21791 | 35852 ft | 355 kts | 267° |
| 2026-05-05 18:21 | 32.17238 | -108.27571 | 35853 ft | 355 kts | 267° |
| 2026-05-05 18:21 | 32.17824 | -108.33353 | 35867 ft | 355 kts | 267° |
| 2026-05-05 18:22 | 32.18408 | -108.39097 | 35902 ft | 355 kts | 267° |
| 2026-05-05 18:22 | 32.18990 | -108.44877 | 35953 ft | 354 kts | 266° |
| 2026-05-05 18:23 | 32.19565 | -108.50638 | 35972 ft | 353 kts | 266° |
| 2026-05-05 18:23 | 32.20134 | -108.56388 | 35999 ft | 353 kts | 266° |
| 2026-05-05 18:24 | 32.20708 | -108.62145 | 36021 ft | 353 kts | 266° |
| 2026-05-05 18:24 | 32.21277 | -108.67895 | 36037 ft | 352 kts | 266° |
| 2026-05-05 18:25 | 32.21840 | -108.73639 | 36037 ft | 352 kts | 266° |
| 2026-05-05 18:25 | 32.22024 | -108.75540 | 35872 ft | 352 kts | 266° |
| 2026-05-05 18:25 | 32.22397 | -108.79384 | 35868 ft | 352 kts | 266° |
| 2026-05-05 18:26 | 32.22956 | -108.85128 | 35861 ft | 352 kts | 266° |
| 2026-05-05 18:26 | 32.23520 | -108.90875 | 35881 ft | 352 kts | 266° |
| 2026-05-05 18:27 | 32.24069 | -108.96627 | 35865 ft | 352 kts | 266° |
| 2026-05-05 18:27 | 32.24621 | -109.02382 | 35858 ft | 353 kts | 266° |
| 2026-05-05 18:28 | 32.25445 | -109.11025 | 35854 ft | 353 kts | 266° |
| 2026-05-05 18:28 | 32.25995 | -109.16792 | 35870 ft | 354 kts | 266° |
| 2026-05-05 18:29 | 32.26544 | -109.22576 | 35865 ft | 354 kts | 266° |
| 2026-05-05 18:29 | 32.27317 | -109.28367 | 35862 ft | 363 kts | 272° |
| 2026-05-05 18:30 | 32.28590 | -109.34154 | 35863 ft | 364 kts | 273° |
| 2026-05-05 18:30 | 32.29856 | -109.39937 | 35872 ft | 363 kts | 273° |
| 2026-05-05 18:31 | 32.31101 | -109.45720 | 35868 ft | 363 kts | 273° |
| 2026-05-05 18:31 | 32.32339 | -109.51499 | 35875 ft | 362 kts | 273° |
| 2026-05-05 18:32 | 32.33574 | -109.57274 | 35876 ft | 362 kts | 273° |
| 2026-05-05 18:32 | 32.34807 | -109.63046 | 35872 ft | 362 kts | 273° |
| 2026-05-05 18:33 | 32.36038 | -109.68815 | 35881 ft | 362 kts | 273° |
| 2026-05-05 18:33 | 32.37264 | -109.74590 | 35912 ft | 363 kts | 272° |
| 2026-05-05 18:34 | 32.38494 | -109.80384 | 35906 ft | 363 kts | 272° |
| 2026-05-05 18:34 | 32.39717 | -109.86185 | 35892 ft | 364 kts | 272° |
| 2026-05-05 18:35 | 32.40945 | -109.91992 | 35887 ft | 364 kts | 272° |
| 2026-05-05 18:35 | 32.42166 | -109.97800 | 35895 ft | 364 kts | 272° |
| 2026-05-05 18:36 | 32.43388 | -110.03616 | 35896 ft | 364 kts | 272° |
| 2026-05-05 18:36 | 32.44607 | -110.09432 | 35883 ft | 364 kts | 272° |
| 2026-05-05 18:37 | 32.45822 | -110.15254 | 35914 ft | 365 kts | 272° |
| 2026-05-05 18:37 | 32.47032 | -110.21076 | 35900 ft | 364 kts | 272° |
| 2026-05-05 18:38 | 32.48237 | -110.26875 | 35896 ft | 363 kts | 272° |
| 2026-05-05 18:38 | 32.49443 | -110.32695 | 35890 ft | 364 kts | 272° |
| 2026-05-05 18:39 | 32.50641 | -110.38470 | 35895 ft | 364 kts | 272° |
| 2026-05-05 18:39 | 32.51841 | -110.44294 | 35924 ft | 364 kts | 272° |
| 2026-05-05 18:40 | 32.53049 | -110.50156 | 35918 ft | 364 kts | 272° |
| 2026-05-05 18:40 | 32.54237 | -110.55957 | 35902 ft | 362 kts | 272° |
| 2026-05-05 18:41 | 32.55424 | -110.61754 | 35907 ft | 362 kts | 272° |
| 2026-05-05 18:41 | 32.56602 | -110.67511 | 35909 ft | 362 kts | 272° |
| 2026-05-05 18:42 | 32.57780 | -110.73309 | 35905 ft | 362 kts | 272° |
| 2026-05-05 18:42 | 32.58960 | -110.79108 | 35917 ft | 362 kts | 272° |
| 2026-05-05 18:43 | 32.60138 | -110.84912 | 35929 ft | 362 kts | 272° |
| 2026-05-05 18:43 | 32.61307 | -110.90702 | 35923 ft | 361 kts | 272° |
| 2026-05-05 18:44 | 32.62474 | -110.96490 | 35932 ft | 361 kts | 272° |
| 2026-05-05 18:44 | 32.63634 | -111.02278 | 35936 ft | 361 kts | 272° |
| 2026-05-05 18:45 | 32.64794 | -111.08070 | 35949 ft | 361 kts | 272° |
| 2026-05-05 18:45 | 32.65956 | -111.13861 | 35971 ft | 361 kts | 272° |
| 2026-05-05 18:46 | 32.67108 | -111.19655 | 35970 ft | 360 kts | 272° |
| 2026-05-05 18:46 | 32.68258 | -111.25438 | 35965 ft | 360 kts | 272° |
| 2026-05-05 18:47 | 32.69421 | -111.31222 | 35962 ft | 360 kts | 272° |
| 2026-05-05 18:47 | 32.70571 | -111.37008 | 35958 ft | 360 kts | 272° |
| 2026-05-05 18:48 | 32.71714 | -111.42792 | 35960 ft | 361 kts | 272° |
| 2026-05-05 18:48 | 32.72858 | -111.48599 | 35943 ft | 361 kts | 272° |
| 2026-05-05 18:49 | 32.73990 | -111.54357 | 35935 ft | 361 kts | 272° |
| 2026-05-05 18:49 | 32.75127 | -111.60159 | 35920 ft | 361 kts | 272° |
| 2026-05-05 18:50 | 32.76262 | -111.65964 | 35919 ft | 360 kts | 272° |
| 2026-05-05 18:50 | 32.77388 | -111.71768 | 35918 ft | 360 kts | 272° |
| 2026-05-05 18:51 | 32.78504 | -111.77568 | 35946 ft | 361 kts | 272° |
| 2026-05-05 18:51 | 32.79632 | -111.83391 | 35936 ft | 362 kts | 271° |
| 2026-05-05 18:52 | 32.80757 | -111.89225 | 35930 ft | 362 kts | 272° |
| 2026-05-05 18:52 | 32.81884 | -111.95064 | 35931 ft | 362 kts | 271° |
| 2026-05-05 18:53 | 32.83008 | -112.00902 | 35928 ft | 362 kts | 271° |
| 2026-05-05 18:53 | 32.84130 | -112.06746 | 35922 ft | 362 kts | 271° |
| 2026-05-05 18:54 | 32.85256 | -112.12585 | 35930 ft | 362 kts | 271° |
| 2026-05-05 18:54 | 32.86371 | -112.18457 | 35930 ft | 365 kts | 271° |
| 2026-05-05 18:55 | 32.87488 | -112.24338 | 35931 ft | 365 kts | 271° |
| 2026-05-05 18:55 | 32.88603 | -112.30219 | 35928 ft | 364 kts | 271° |
| 2026-05-05 18:56 | 32.89527 | -112.35110 | 35943 ft | 365 kts | 271° |
| 2026-05-05 18:56 | 32.90644 | -112.40998 | 35934 ft | 365 kts | 271° |
| 2026-05-05 18:57 | 32.91757 | -112.46907 | 35965 ft | 367 kts | 272° |
| 2026-05-05 18:57 | 32.92876 | -112.52868 | 35969 ft | 370 kts | 272° |
| 2026-05-05 18:58 | 32.93760 | -112.58860 | 38577 ft | 371 kts | 270° |
| 2026-05-05 18:58 | 32.94337 | -112.61977 | 37025 ft | 394 kts | 275° |
| 2026-05-05 18:58 | 32.95010 | -112.65107 | 36481 ft | 382 kts | 271° |
| 2026-05-05 18:59 | 32.95318 | -112.68149 | 36228 ft | 361 kts | 263° |
| 2026-05-05 18:59 | 32.95163 | -112.71077 | 36109 ft | 351 kts | 256° |
| 2026-05-05 18:59 | 32.94410 | -112.76798 | 36019 ft | 350 kts | 255° |
| 2026-05-05 19:00 | 32.93627 | -112.82526 | 35990 ft | 351 kts | 255° |
| 2026-05-05 19:00 | 32.92849 | -112.88270 | 35972 ft | 352 kts | 255° |
| 2026-05-05 19:01 | 32.92070 | -112.94019 | 35961 ft | 352 kts | 255° |
| 2026-05-05 19:01 | 32.91289 | -112.99764 | 35950 ft | 352 kts | 255° |
| 2026-05-05 19:02 | 32.90504 | -113.05513 | 35941 ft | 352 kts | 255° |
| 2026-05-05 19:02 | 32.89718 | -113.11220 | 35968 ft | 352 kts | 255° |
| 2026-05-05 19:03 | 32.88897 | -113.16978 | 35932 ft | 353 kts | 255° |
| 2026-05-05 19:03 | 32.88091 | -113.22753 | 35924 ft | 354 kts | 255° |
| 2026-05-05 19:04 | 32.87290 | -113.28527 | 35919 ft | 354 kts | 255° |
| 2026-05-05 19:04 | 32.86490 | -113.34301 | 35918 ft | 354 kts | 255° |
| 2026-05-05 19:05 | 32.85687 | -113.40076 | 35912 ft | 354 kts | 255° |
| 2026-05-05 19:05 | 32.84878 | -113.45847 | 35914 ft | 353 kts | 255° |
| 2026-05-05 19:06 | 32.84066 | -113.51606 | 35903 ft | 353 kts | 255° |
| 2026-05-05 19:06 | 32.83255 | -113.57364 | 35929 ft | 353 kts | 255° |
| 2026-05-05 19:07 | 32.82442 | -113.63124 | 35934 ft | 353 kts | 255° |
| 2026-05-05 19:07 | 32.81624 | -113.68878 | 35935 ft | 353 kts | 255° |
| 2026-05-05 19:08 | 32.80810 | -113.74635 | 35931 ft | 353 kts | 255° |
| 2026-05-05 19:08 | 32.79991 | -113.80409 | 35933 ft | 356 kts | 255° |
| 2026-05-05 19:09 | 32.79162 | -113.86217 | 35929 ft | 356 kts | 255° |
| 2026-05-05 19:09 | 32.78331 | -113.91972 | 35924 ft | 356 kts | 255° |
| 2026-05-05 19:10 | 32.77590 | -113.97838 | 35924 ft | 360 kts | 260° |
| 2026-05-05 19:10 | 32.77488 | -114.03811 | 35921 ft | 362 kts | 262° |
| 2026-05-05 19:11 | 32.77582 | -114.09824 | 35919 ft | 367 kts | 265° |
| 2026-05-05 19:11 | 32.77832 | -114.15880 | 35919 ft | 367 kts | 265° |
| 2026-05-05 19:12 | 32.78076 | -114.21932 | 35918 ft | 367 kts | 265° |
| 2026-05-05 19:12 | 32.78306 | -114.27943 | 35910 ft | 366 kts | 265° |
| 2026-05-05 19:13 | 32.78532 | -114.33996 | 35973 ft | 369 kts | 265° |
| 2026-05-05 19:13 | 32.79120 | -114.40116 | 35963 ft | 382 kts | 276° |
| 2026-05-05 19:14 | 32.80765 | -114.46187 | 35961 ft | 387 kts | 279° |
| 2026-05-05 19:14 | 32.82469 | -114.52245 | 35962 ft | 386 kts | 279° |
| 2026-05-05 19:15 | 32.84145 | -114.58312 | 35957 ft | 386 kts | 278° |
| 2026-05-05 19:15 | 32.85800 | -114.64378 | 35963 ft | 385 kts | 278° |
| 2026-05-05 19:16 | 32.87407 | -114.70438 | 35962 ft | 380 kts | 275° |
| 2026-05-05 19:16 | 32.87898 | -114.76543 | 35961 ft | 367 kts | 262° |
| 2026-05-05 19:17 | 32.87717 | -114.82599 | 35957 ft | 366 kts | 262° |
| 2026-05-05 19:17 | 32.87562 | -114.88661 | 35956 ft | 367 kts | 262° |
| 2026-05-05 19:18 | 32.87425 | -114.94670 | 35688 ft | 361 kts | 262° |
| 2026-05-05 19:18 | 32.87358 | -114.97667 | 35457 ft | 363 kts | 262° |
| 2026-05-05 19:18 | 32.87293 | -115.00667 | 35236 ft | 362 kts | 262° |
| 2026-05-05 19:19 | 32.87224 | -115.03667 | 35024 ft | 365 kts | 262° |
| 2026-05-05 19:19 | 32.87150 | -115.06696 | 34834 ft | 369 kts | 263° |
| 2026-05-05 19:19 | 32.87078 | -115.09774 | 34554 ft | 373 kts | 263° |
| 2026-05-05 19:19 | 32.87008 | -115.12848 | 34037 ft | 371 kts | 262° |
| 2026-05-05 19:20 | 32.86933 | -115.15920 | 33380 ft | 371 kts | 262° |
| 2026-05-05 19:20 | 32.86857 | -115.18986 | 32732 ft | 370 kts | 262° |
| 2026-05-05 19:20 | 32.86779 | -115.22042 | 32097 ft | 370 kts | 262° |
| 2026-05-05 19:20 | 32.86701 | -115.25058 | 31467 ft | 370 kts | 262° |
| 2026-05-05 19:21 | 32.86623 | -115.28157 | 30829 ft | 370 kts | 262° |
| 2026-05-05 19:21 | 32.86547 | -115.31208 | 30214 ft | 369 kts | 262° |
| 2026-05-05 19:21 | 32.86416 | -115.34262 | 29433 ft | 369 kts | 260° |
| 2026-05-05 19:21 | 32.86070 | -115.37279 | 28635 ft | 368 kts | 257° |
| 2026-05-05 19:22 | 32.85636 | -115.40293 | 27888 ft | 372 kts | 257° |
| 2026-05-05 19:22 | 32.85195 | -115.43310 | 27177 ft | 378 kts | 257° |
| 2026-05-05 19:22 | 32.84751 | -115.46418 | 26438 ft | 385 kts | 258° |
| 2026-05-05 19:22 | 32.84284 | -115.49569 | 25796 ft | 388 kts | 257° |
| 2026-05-05 19:23 | 32.83768 | -115.52741 | 25342 ft | 394 kts | 257° |
| 2026-05-05 19:23 | 32.83251 | -115.55916 | 24896 ft | 389 kts | 258° |
| 2026-05-05 19:23 | 32.82739 | -115.59078 | 24437 ft | 389 kts | 258° |
| 2026-05-05 19:23 | 32.82225 | -115.62236 | 23966 ft | 390 kts | 258° |
| 2026-05-05 19:24 | 32.81706 | -115.65402 | 23493 ft | 391 kts | 259° |
| 2026-05-05 19:24 | 32.81185 | -115.68580 | 22909 ft | 392 kts | 259° |
| 2026-05-05 19:24 | 32.80668 | -115.71748 | 22364 ft | 389 kts | 259° |
| 2026-05-05 19:24 | 32.80151 | -115.74891 | 21845 ft | 386 kts | 259° |
| 2026-05-05 19:25 | 32.79635 | -115.78016 | 21324 ft | 383 kts | 259° |
| 2026-05-05 19:25 | 32.79125 | -115.81115 | 20836 ft | 382 kts | 259° |
| 2026-05-05 19:25 | 32.78624 | -115.84207 | 20339 ft | 379 kts | 261° |
| 2026-05-05 19:25 | 32.78313 | -115.87305 | 19851 ft | 377 kts | 264° |
| 2026-05-05 19:26 | 32.78083 | -115.90398 | 19366 ft | 375 kts | 265° |
| 2026-05-05 19:26 | 32.77860 | -115.93477 | 18879 ft | 373 kts | 265° |
| 2026-05-05 19:26 | 32.77634 | -115.96554 | 18375 ft | 371 kts | 265° |
| 2026-05-05 19:26 | 32.77411 | -115.99590 | 17806 ft | 368 kts | 265° |
| 2026-05-05 19:27 | 32.77186 | -116.02621 | 17267 ft | 368 kts | 265° |
| 2026-05-05 19:27 | 32.76957 | -116.05644 | 16751 ft | 367 kts | 265° |
| 2026-05-05 19:27 | 32.76727 | -116.08659 | 16250 ft | 366 kts | 265° |
| 2026-05-05 19:27 | 32.76499 | -116.11668 | 15758 ft | 365 kts | 265° |
| 2026-05-05 19:28 | 32.76270 | -116.14667 | 15288 ft | 364 kts | 265° |
| 2026-05-05 19:28 | 32.76041 | -116.17661 | 14807 ft | 364 kts | 265° |
| 2026-05-05 19:28 | 32.75811 | -116.20646 | 14328 ft | 363 kts | 265° |
| 2026-05-05 19:28 | 32.75582 | -116.23636 | 13846 ft | 363 kts | 265° |
| 2026-05-05 19:29 | 32.75350 | -116.26619 | 13302 ft | 363 kts | 265° |
| 2026-05-05 19:29 | 32.75120 | -116.29547 | 12861 ft | 357 kts | 266° |
| 2026-05-05 19:29 | 32.74896 | -116.32431 | 12596 ft | 343 kts | 265° |
| 2026-05-05 19:29 | 32.74677 | -116.35193 | 12395 ft | 329 kts | 266° |
| 2026-05-05 19:30 | 32.74473 | -116.37833 | 12239 ft | 315 kts | 266° |
| 2026-05-05 19:30 | 32.74270 | -116.40371 | 12116 ft | 302 kts | 266° |
| 2026-05-05 19:30 | 32.74077 | -116.42797 | 11914 ft | 289 kts | 266° |
| 2026-05-05 19:30 | 32.73892 | -116.45135 | 11584 ft | 280 kts | 266° |
| 2026-05-05 19:31 | 32.73711 | -116.47425 | 11096 ft | 280 kts | 266° |
| 2026-05-05 19:31 | 32.73528 | -116.49724 | 10764 ft | 276 kts | 266° |
| 2026-05-05 19:31 | 32.73333 | -116.51985 | 10411 ft | 274 kts | 265° |
| 2026-05-05 19:31 | 32.73116 | -116.54245 | 9936 ft | 276 kts | 265° |
| 2026-05-05 19:32 | 32.72897 | -116.56500 | 9540 ft | 274 kts | 265° |
| 2026-05-05 19:32 | 32.72681 | -116.58745 | 9094 ft | 273 kts | 264° |
| 2026-05-05 19:32 | 32.72465 | -116.60967 | 8731 ft | 269 kts | 264° |
| 2026-05-05 19:32 | 32.72249 | -116.63163 | 8268 ft | 265 kts | 264° |
| 2026-05-05 19:33 | 32.72040 | -116.65316 | 8005 ft | 260 kts | 264° |
| 2026-05-05 19:33 | 32.71846 | -116.67442 | 7685 ft | 260 kts | 265° |
| 2026-05-05 19:33 | 32.71679 | -116.69600 | 7201 ft | 262 kts | 265° |
| 2026-05-05 19:33 | 32.71513 | -116.71726 | 6978 ft | 254 kts | 265° |
| 2026-05-05 19:34 | 32.71352 | -116.73771 | 6842 ft | 244 kts | 265° |
| 2026-05-05 19:34 | 32.71196 | -116.75723 | 6723 ft | 231 kts | 266° |
| 2026-05-05 19:34 | 32.71050 | -116.77576 | 6594 ft | 219 kts | 265° |
| 2026-05-05 19:35 | 32.70784 | -116.80943 | 6204 ft | 195 kts | 266° |
| 2026-05-05 19:35 | 32.70513 | -116.82529 | 5853 ft | 200 kts | 253° |
| 2026-05-05 19:35 | 32.70014 | -116.84093 | 5536 ft | 203 kts | 251° |
| 2026-05-05 19:35 | 32.69529 | -116.85634 | 5238 ft | 202 kts | 251° |
| 2026-05-05 19:36 | 32.69032 | -116.87222 | 5120 ft | 202 kts | 251° |
| 2026-05-05 19:36 | 32.68547 | -116.88790 | 4874 ft | 202 kts | 251° |
| 2026-05-05 19:36 | 32.68087 | -116.90365 | 4531 ft | 202 kts | 252° |
| 2026-05-05 19:36 | 32.67628 | -116.91930 | 4408 ft | 201 kts | 252° |
| 2026-05-05 19:37 | 32.67265 | -116.93515 | 4274 ft | 199 kts | 265° |
| 2026-05-05 19:37 | 32.67473 | -116.95132 | 4039 ft | 199 kts | 286° |
| 2026-05-05 19:37 | 32.67876 | -116.96690 | 3804 ft | 193 kts | 286° |
| 2026-05-05 19:37 | 32.68248 | -116.98179 | 3560 ft | 184 kts | 286° |
| 2026-05-05 19:38 | 32.68601 | -116.99585 | 3314 ft | 177 kts | 286° |
| 2026-05-05 19:38 | 32.68940 | -117.00979 | 3149 ft | 172 kts | 285° |
| 2026-05-05 19:38 | 32.69277 | -117.02324 | 2916 ft | 173 kts | 286° |
| 2026-05-05 19:38 | 32.69609 | -117.03697 | 2658 ft | 173 kts | 284° |
| 2026-05-05 19:39 | 32.69938 | -117.04986 | 2516 ft | 151 kts | 285° |
| 2026-05-05 19:39 | 32.70226 | -117.06169 | 2202 ft | 148 kts | 284° |
| 2026-05-05 19:39 | 32.70521 | -117.07350 | 2078 ft | 152 kts | 285° |
| 2026-05-05 19:39 | 32.70812 | -117.08560 | 2051 ft | 146 kts | 284° |
| 2026-05-05 19:40 | 32.71068 | -117.09628 | 1830 ft | 128 kts | 284° |
| 2026-05-05 19:40 | 32.71297 | -117.10632 | 1589 ft | 126 kts | 287° |
| 2026-05-05 19:40 | 32.71550 | -117.11615 | 1342 ft | 125 kts | 287° |
| 2026-05-05 19:40 | 32.71790 | -117.12618 | 1112 ft | 125 kts | 286° |
| 2026-05-05 19:41 | 32.72025 | -117.13617 | 923 ft | 126 kts | 287° |
| 2026-05-05 19:41 | 32.72271 | -117.14619 | 732 ft | 127 kts | 289° |
| 2026-05-05 19:41 | 32.72537 | -117.15618 | 554 ft | 127 kts | 288° |
| 2026-05-05 19:41 | 32.72794 | -117.16624 | 383 ft | 127 kts | 284° |
| 2026-05-05 19:42 | 32.73027 | -117.17621 | 140 ft | 124 kts | 284° |
| 2026-05-05 19:42 | 32.73270 | -117.18603 | 44 ft | 120 kts | 285° |
| 2026-05-05 19:42 | 32.73470 | -117.19443 | 29 ft | 83 kts | 286° |
| 2026-05-05 19:42 | 32.73584 | -117.19911 | 29 ft | 35 kts | 285° |
| 2026-05-05 19:43 | 32.73632 | -117.20110 | 29 ft | 24 kts | 284° |
| 2026-05-05 19:43 | 32.73639 | -117.20171 | 28 ft | 3 kts | 255° |
| 2026-05-05 19:43 | 32.73576 | -117.20217 | 28 ft | 14 kts | 191° |
| 2026-05-05 19:43 | 32.73499 | -117.20241 | 28 ft | 10 kts | 197° |
| 2026-05-05 19:44 | 32.73435 | -117.20267 | 28 ft | 5 kts | 222° |
| 2026-05-05 19:44 | 32.73423 | -117.20293 | 28 ft | 6 kts | 261° |
| 2026-05-05 19:44 | 32.73418 | -117.20333 | 28 ft | 2 kts | 263° |
| 2026-05-05 19:44 | 32.73418 | -117.20337 | 28 ft | 0 kts | 262° |